Indianola, WA (98342)

9:46 PM PST on February 20, 2017 (GMT -0800)
WeatherOLA | | Change Station

Elev 341 ft 47.75 °N, 122.52 °W | Updated 3 seconds ago

Overcast
Overcast
44.7 °F
Feels Like 45 °F
N
0.0
Wind Variable Wind from ESE
Gusts 0.0 mph

Today
High -- | Low -- °F
--% Chance of Precip.
Yesterday
High -- | Low -- °F
Precip. -- in
Pressure 29.72 in
Visibility 4.0 miles
Clouds Few 900 ft
Mostly Cloudy 1700 ft
Overcast 2500 ft
Windchill 45 °F
Dew Point 44 °F
Humidity 96%
Rainfall 0.40 in
Snow Depth Not available.
7:06 AM 5:41 PM
Waning Crescent, 28% visible
SPECI KPAE 210538Z 07008KT 4SM -RA BR FEW009 BKN017 OVC025 05/04 A2972 RMK AO2 P0002 T00500044 $
Pressure 29.72 in
Visibility 4.0 miles
Clouds Few 900 ft
Mostly Cloudy 1700 ft
Overcast 2500 ft
Windchill 45 °F
Dew Point 44 °F
Humidity 96%
Rainfall 0.40 in
Snow Depth Not available.
7:06 AM 5:41 PM
Waning Crescent, 28% visible
SPECI KPAE 210538Z 07008KT 4SM -RA BR FEW009 BKN017 OVC025 05/04 A2972 RMK AO2 P0002 T00500044 $

Get Your Daily Forecast Email!

Thanks for signing up!

Be on the lookout for a verification email in your inbox.

You'll start receiving the daily forecast at 8 AM.

×

10-Day Weather Forecast

Almanac

Astronomy

Feb. 20, 2017 Rise Set
Actual Time
Civil Twilight
Nautical Twilight
Astronomical Twilight
Moon
Length of Visible Light
Length of Day
Tomorrow will be .
, % of the Moon is Illuminated

Today's Extremes

State Highs State Lows

Community

WunderPhotos

Upload Photos

1,962,540 photos uploaded!

WunderBlog® & News

Nearby

Air Quality

  Air Quality AQ Index Pollutant
Not available.

Snow Depth

Station Depth Elevation

Earthquake Activity

City Distance Mag. Time & Date
Minimum magnitude displayed is 2.5.

Coastal Water Temperatures

Place Temperature

Stations

Nearby Weather Stations

Station Location Temp. Windchill Dew Point Humidity Wind Precip. Elev Updated Type
                   

Watches & Warnings

There are currently no watches in effect.